createdAt,value
2023-04-26T00:00:19.664Z,3.53
2023-04-26T00:03:05.162Z,3.58
2023-04-26T00:05:50.737Z,3.72
2023-04-26T00:08:36.640Z,3.47
2023-04-26T00:11:23.016Z,3.45
2023-04-26T00:14:08.230Z,3.38
2023-04-26T00:16:53.343Z,3.10
2023-04-26T00:19:39.681Z,2.78
2023-04-26T00:22:25.586Z,3.00
2023-04-26T00:25:11.188Z,2.53
2023-04-26T00:27:56.827Z,2.75
2023-04-26T00:30:47.645Z,3.30
2023-04-26T00:33:32.743Z,3.72
2023-04-26T00:36:19.347Z,3.53
2023-04-26T00:39:04.624Z,4.00
2023-04-26T00:41:49.954Z,4.07
2023-04-26T00:44:34.964Z,3.65
2023-04-26T00:47:20.284Z,4.13
2023-04-26T00:50:07.367Z,4.03
2023-04-26T00:52:52.746Z,3.67
2023-04-26T00:55:38.095Z,4.10
2023-04-26T00:58:22.948Z,5.57
2023-04-26T01:01:08.460Z,15.77
2023-04-26T01:03:54.178Z,25.83
2023-04-26T01:06:40.172Z,16.20
2023-04-26T01:09:25.701Z,9.13
2023-04-26T01:12:11.480Z,6.82
2023-04-26T01:14:57.370Z,6.32
2023-04-26T01:17:45.943Z,6.70
2023-04-26T01:20:31.144Z,5.57
2023-04-26T01:23:16.968Z,4.10
2023-04-26T01:26:02.400Z,4.30
2023-04-26T01:28:49.605Z,4.45
2023-04-26T01:31:34.808Z,4.78
2023-04-26T01:34:20.082Z,4.28
2023-04-26T01:37:05.181Z,4.22
2023-04-26T01:39:50.357Z,3.80
2023-04-26T01:42:35.702Z,4.43
2023-04-26T01:45:20.541Z,3.88
2023-04-26T01:48:06.058Z,4.40
2023-04-26T01:50:51.304Z,3.97
2023-04-26T01:53:36.543Z,3.88
2023-04-26T01:56:24.409Z,4.28
2023-04-26T01:59:09.284Z,3.33
2023-04-26T02:01:54.324Z,3.20
2023-04-26T02:04:39.643Z,4.10
2023-04-26T02:07:24.901Z,4.00
2023-04-26T02:10:09.946Z,3.25
2023-04-26T02:12:55.242Z,4.45
2023-04-26T02:15:40.794Z,4.38
2023-04-26T02:18:26.785Z,3.95
2023-04-26T02:21:12.327Z,3.60
2023-04-26T02:23:57.525Z,4.35
2023-04-26T02:26:42.685Z,4.15
2023-04-26T02:29:42.128Z,3.67
2023-04-26T02:32:27.662Z,3.88
2023-04-26T02:35:12.781Z,3.53
2023-04-26T02:37:57.866Z,4.22
2023-04-26T02:40:42.856Z,3.97
2023-04-26T02:43:28.184Z,4.20
2023-04-26T02:46:16.746Z,4.13
2023-04-26T02:49:02.120Z,4.53
2023-04-26T02:51:47.070Z,3.88
2023-04-26T02:54:31.940Z,3.80
2023-04-26T02:57:16.923Z,3.42
2023-04-26T03:00:02.093Z,3.75
2023-04-26T03:02:47.500Z,3.55
2023-04-26T03:05:32.679Z,4.15
2023-04-26T03:08:17.836Z,3.55
2023-04-26T03:11:03.331Z,3.45
2023-04-26T03:13:48.346Z,4.22
2023-04-26T03:16:41.261Z,4.10
2023-04-26T03:19:29.902Z,3.75
2023-04-26T03:22:16.313Z,4.30
2023-04-26T03:25:01.426Z,4.43
2023-04-26T03:27:46.879Z,3.88
2023-04-26T03:30:32.126Z,4.13
2023-04-26T03:33:17.537Z,4.85
2023-04-26T03:36:02.823Z,4.78
2023-04-26T03:38:47.754Z,4.60
2023-04-26T03:41:33.584Z,4.60
2023-04-26T03:44:18.744Z,4.53
2023-04-26T03:47:05.232Z,4.68
2023-04-26T03:49:50.492Z,4.57
2023-04-26T03:52:35.865Z,4.85
2023-04-26T03:55:20.940Z,5.05
2023-04-26T03:58:07.993Z,4.05
2023-04-26T04:00:57.589Z,5.10
2023-04-26T04:03:43.171Z,4.88
2023-04-26T04:06:28.654Z,5.40
2023-04-26T04:09:13.644Z,5.00
2023-04-26T04:11:59.055Z,4.82
2023-04-26T04:14:43.904Z,4.90
2023-04-26T04:17:29.037Z,5.43
2023-04-26T04:20:14.118Z,4.95
2023-04-26T04:22:59.471Z,5.53
2023-04-26T04:25:45.525Z,5.60
2023-04-26T04:28:30.552Z,5.80
2023-04-26T04:31:15.819Z,6.25
2023-04-26T04:34:01.433Z,5.47
2023-04-26T04:36:46.340Z,5.70
2023-04-26T04:39:31.434Z,6.07
2023-04-26T04:42:16.614Z,5.72
2023-04-26T04:45:01.630Z,6.30
2023-04-26T04:47:46.611Z,6.07
2023-04-26T04:50:32.202Z,6.68
2023-04-26T04:53:17.449Z,6.60
2023-04-26T04:56:02.720Z,6.63
2023-04-26T04:58:47.771Z,6.57
2023-04-26T05:01:33.196Z,6.35
2023-04-26T05:04:18.652Z,7.20
2023-04-26T05:07:03.877Z,6.40
2023-04-26T05:09:49.065Z,6.63
2023-04-26T05:12:35.316Z,7.05
2023-04-26T05:15:20.491Z,6.72
2023-04-26T05:18:05.653Z,7.20
2023-04-26T05:20:51.018Z,6.63
2023-04-26T05:23:36.406Z,6.20
2023-04-26T05:26:21.687Z,6.50
2023-04-26T05:29:06.939Z,6.25
2023-04-26T05:31:51.993Z,5.97
2023-04-26T05:34:38.583Z,5.60
2023-04-26T05:37:23.523Z,6.03
2023-04-26T05:40:09.154Z,5.47
2023-04-26T05:42:54.255Z,5.97
2023-04-26T05:45:39.714Z,6.10
2023-04-26T05:48:25.331Z,5.78
2023-04-26T05:51:10.286Z,5.93
2023-04-26T05:53:55.757Z,7.00
2023-04-26T05:56:40.810Z,6.00
2023-04-26T05:59:25.996Z,6.47
2023-04-26T06:02:12.064Z,5.95
2023-04-26T06:04:57.544Z,5.78
2023-04-26T06:07:44.069Z,6.25
2023-04-26T06:10:29.326Z,6.00
2023-04-26T06:13:14.575Z,5.50
2023-04-26T06:15:59.864Z,6.47
2023-04-26T06:18:45.084Z,6.55
2023-04-26T06:21:30.103Z,6.00
2023-04-26T06:24:15.523Z,6.20
2023-04-26T06:27:00.496Z,6.82
2023-04-26T06:29:46.084Z,5.80
2023-04-26T06:32:31.243Z,6.72
2023-04-26T06:35:16.596Z,7.15
2023-04-26T06:38:02.160Z,6.25
2023-04-26T06:40:47.068Z,6.57
2023-04-26T06:43:32.083Z,5.90
2023-04-26T06:46:17.311Z,6.65
2023-04-26T06:49:02.418Z,6.07
2023-04-26T06:51:47.591Z,6.43
2023-04-26T06:54:34.623Z,6.22
2023-04-26T06:57:21.527Z,6.13
2023-04-26T07:00:07.568Z,5.80
2023-04-26T07:02:52.744Z,5.90
2023-04-26T07:05:39.584Z,5.70
2023-04-26T07:08:24.677Z,5.95
2023-04-26T07:11:11.400Z,5.65
2023-04-26T07:13:57.092Z,6.50
2023-04-26T07:16:44.726Z,5.80
2023-04-26T07:19:29.910Z,5.63
2023-04-26T07:22:14.887Z,5.70
2023-04-26T07:25:00.135Z,5.40
2023-04-26T07:27:45.924Z,5.30
2023-04-26T07:30:32.494Z,5.78
2023-04-26T07:33:17.775Z,5.43
2023-04-26T07:36:03.052Z,5.85
2023-04-26T07:38:48.149Z,4.97
2023-04-26T07:41:33.359Z,5.40
2023-04-26T07:44:18.505Z,5.38
2023-04-26T07:47:03.590Z,5.90
2023-04-26T07:49:53.223Z,5.53
2023-04-26T07:52:38.986Z,5.18
2023-04-26T07:55:24.765Z,4.95
2023-04-26T07:58:12.534Z,5.50
2023-04-26T08:00:57.506Z,5.55
2023-04-26T08:03:43.135Z,6.53
2023-04-26T08:06:29.294Z,5.78
2023-04-26T08:09:14.591Z,5.68
2023-04-26T08:12:00.224Z,5.75
2023-04-26T08:14:46.364Z,4.90
2023-04-26T08:17:32.253Z,4.63
2023-04-26T08:20:18.082Z,4.80
2023-04-26T08:23:03.150Z,4.25
2023-04-26T08:25:49.676Z,4.85
2023-04-26T08:28:35.778Z,3.67
2023-04-26T08:31:22.898Z,3.30
2023-04-26T08:34:11.421Z,3.65
2023-04-26T08:36:56.803Z,3.10
2023-04-26T08:39:41.961Z,2.75
2023-04-26T08:42:28.287Z,2.92
2023-04-26T08:45:16.299Z,2.60
2023-04-26T08:48:09.244Z,3.15
2023-04-26T08:50:55.502Z,4.18
2023-04-26T08:53:41.746Z,2.45
2023-04-26T08:56:28.347Z,3.13
2023-04-26T08:59:15.013Z,2.95
2023-04-26T09:02:03.201Z,2.58
2023-04-26T09:04:49.908Z,2.65
2023-04-26T09:07:44.379Z,2.55
2023-04-26T09:10:30.417Z,2.15
2023-04-26T09:13:15.598Z,2.75
2023-04-26T09:16:03.415Z,2.60
2023-04-26T09:18:57.131Z,3.80
2023-04-26T09:21:48.434Z,2.63
2023-04-26T09:24:52.060Z,2.67
2023-04-26T09:27:38.937Z,2.50
2023-04-26T09:30:24.422Z,2.30
2023-04-26T09:33:09.734Z,2.72
2023-04-26T09:35:54.787Z,2.78
2023-04-26T09:38:43.437Z,2.50
2023-04-26T09:41:47.196Z,2.35
2023-04-26T09:44:32.927Z,2.70
2023-04-26T09:47:18.205Z,3.13
2023-04-26T09:50:04.054Z,2.63
2023-04-26T09:52:48.955Z,2.65
2023-04-26T09:55:35.849Z,2.20
2023-04-26T09:58:22.240Z,2.75
2023-04-26T10:01:08.853Z,3.50
2023-04-26T10:03:56.899Z,2.63
2023-04-26T10:06:41.989Z,2.50
2023-04-26T10:09:27.539Z,2.25
2023-04-26T10:12:13.924Z,2.40
2023-04-26T10:14:58.936Z,2.38
2023-04-26T10:17:44.238Z,2.80
2023-04-26T10:20:29.830Z,3.30
2023-04-26T10:23:25.699Z,3.95
2023-04-26T10:26:52.814Z,2.40
2023-04-26T10:29:56.516Z,2.85
2023-04-26T10:32:57.209Z,2.53
2023-04-26T10:36:05.375Z,2.60
2023-04-26T10:39:23.332Z,2.22
2023-04-26T10:42:28.065Z,2.50
2023-04-26T10:45:27.924Z,2.45
2023-04-26T10:51:05.468Z,2.53
2023-04-26T10:53:52.286Z,2.15
2023-04-26T10:56:37.805Z,2.03
2023-04-26T10:59:39.748Z,2.17
2023-04-26T11:02:52.403Z,2.13
2023-04-26T11:05:47.280Z,2.05
2023-04-26T11:08:32.747Z,2.47
2023-04-26T11:11:19.516Z,2.30
2023-04-26T11:14:05.691Z,2.20
2023-04-26T11:16:50.973Z,2.45
2023-04-26T11:19:36.248Z,2.15
2023-04-26T11:22:24.673Z,2.75
2023-04-26T11:25:13.207Z,2.38
2023-04-26T11:28:02.769Z,2.13
2023-04-26T11:30:49.991Z,2.08
2023-04-26T11:33:35.474Z,2.30
2023-04-26T11:36:22.691Z,2.03
2023-04-26T11:39:08.094Z,1.80
2023-04-26T11:42:05.528Z,2.17
2023-04-26T11:44:52.251Z,2.03
2023-04-26T11:47:38.232Z,1.98
2023-04-26T11:50:26.802Z,1.90
2023-04-26T11:53:12.544Z,2.28
2023-04-26T11:55:58.043Z,2.38
2023-04-26T11:58:51.689Z,2.33
2023-04-26T12:01:37.158Z,2.85
2023-04-26T12:04:30.851Z,2.40
2023-04-26T12:07:19.584Z,2.20
2023-04-26T12:10:19.251Z,2.28
2023-04-26T12:13:04.215Z,2.03
2023-04-26T12:15:51.281Z,2.28
2023-04-26T12:18:36.353Z,1.98
2023-04-26T12:21:21.924Z,2.25
2023-04-26T12:24:07.055Z,2.10
2023-04-26T12:26:52.502Z,2.38
2023-04-26T12:29:37.562Z,2.33
2023-04-26T12:32:22.887Z,2.72
2023-04-26T12:35:09.098Z,2.55
2023-04-26T12:37:56.852Z,2.17
2023-04-26T12:40:42.551Z,4.88
2023-04-26T12:43:27.678Z,4.72
2023-04-26T12:46:12.887Z,2.15
2023-04-26T12:48:58.176Z,3.20
2023-04-26T12:51:43.473Z,2.83
2023-04-26T12:54:28.497Z,2.25
2023-04-26T12:57:14.274Z,2.20
2023-04-26T12:59:59.415Z,2.05
2023-04-26T13:02:44.862Z,2.10
2023-04-26T13:05:30.591Z,2.30
2023-04-26T13:08:16.068Z,2.15
2023-04-26T13:11:01.714Z,2.40
2023-04-26T13:13:47.020Z,2.15
2023-04-26T13:16:33.277Z,2.30
2023-04-26T13:19:18.578Z,2.10
2023-04-26T13:22:04.798Z,2.17
2023-04-26T13:24:49.787Z,2.00
2023-04-26T13:27:34.914Z,2.38
2023-04-26T13:30:20.113Z,2.08
2023-04-26T13:33:05.490Z,2.00
2023-04-26T13:35:50.859Z,2.15
2023-04-26T13:38:36.144Z,2.47
2023-04-26T13:41:22.430Z,2.30
2023-04-26T13:44:07.615Z,2.80
2023-04-26T13:46:55.525Z,2.33
2023-04-26T13:49:41.723Z,2.58
2023-04-26T13:52:27.952Z,2.53
2023-04-26T13:55:14.320Z,2.50
2023-04-26T13:57:59.468Z,2.65
2023-04-26T14:00:44.613Z,2.53
2023-04-26T14:03:29.864Z,2.67
2023-04-26T14:06:15.420Z,2.70
2023-04-26T14:09:00.971Z,2.72
2023-04-26T14:11:49.446Z,2.35
2023-04-26T14:14:39.111Z,2.55
2023-04-26T14:17:25.258Z,2.85
2023-04-26T14:20:11.102Z,3.03
2023-04-26T14:22:56.258Z,3.20
2023-04-26T14:25:41.571Z,2.55
2023-04-26T14:28:26.659Z,3.13
2023-04-26T14:31:12.808Z,2.60
2023-04-26T14:33:57.798Z,2.63
2023-04-26T14:36:42.953Z,2.40
2023-04-26T14:39:28.039Z,3.10
2023-04-26T14:42:13.173Z,2.78
2023-04-26T14:45:01.202Z,2.50
2023-04-26T14:47:46.452Z,2.72
2023-04-26T14:50:31.313Z,2.45
2023-04-26T14:53:16.800Z,2.67
2023-04-26T14:56:02.133Z,2.78
2023-04-26T14:58:47.431Z,3.78
2023-04-26T15:01:32.694Z,2.70
2023-04-26T15:04:18.088Z,2.72
2023-04-26T15:07:04.325Z,2.70
2023-04-26T15:09:51.002Z,2.85
2023-04-26T15:12:36.506Z,2.95
2023-04-26T15:15:22.628Z,3.58
2023-04-26T15:18:07.868Z,3.25
2023-04-26T15:20:53.278Z,2.92
2023-04-26T15:23:38.481Z,3.55
2023-04-26T15:26:23.433Z,3.25
2023-04-26T15:29:08.401Z,3.67
2023-04-26T15:31:53.888Z,3.35
2023-04-26T15:34:40.774Z,3.63
2023-04-26T15:37:26.252Z,3.13
2023-04-26T15:40:12.124Z,3.95
2023-04-26T15:42:57.289Z,2.55
2023-04-26T15:45:42.470Z,2.88
2023-04-26T15:48:27.618Z,3.60
2023-04-26T15:51:12.813Z,3.95
2023-04-26T15:53:57.692Z,3.45
2023-04-26T15:56:44.302Z,3.85
2023-04-26T15:59:30.575Z,2.63
2023-04-26T16:02:16.099Z,2.83
2023-04-26T16:05:02.147Z,3.88
2023-04-26T16:07:47.426Z,3.00
2023-04-26T16:10:32.697Z,2.83
2023-04-26T16:13:18.330Z,3.10
2023-04-26T16:16:07.103Z,2.70
2023-04-26T16:18:52.235Z,2.70
2023-04-26T16:21:39.606Z,3.17
2023-04-26T16:24:24.887Z,3.17
2023-04-26T16:27:10.256Z,3.00
2023-04-26T16:29:55.596Z,3.20
2023-04-26T16:32:40.777Z,3.05
2023-04-26T16:35:25.824Z,2.63
2023-04-26T16:38:10.863Z,3.03
2023-04-26T16:41:01.328Z,3.78
2023-04-26T16:43:46.526Z,3.83
2023-04-26T16:46:32.359Z,2.88
2023-04-26T16:49:17.652Z,2.97
2023-04-26T16:52:03.805Z,3.15
2023-04-26T16:54:49.195Z,3.78
2023-04-26T16:57:34.649Z,3.10
2023-04-26T17:00:20.055Z,2.85
2023-04-26T17:03:06.406Z,3.20
2023-04-26T17:05:51.615Z,3.63
2023-04-26T17:08:36.855Z,2.80
2023-04-26T17:11:22.144Z,3.15
2023-04-26T17:14:07.361Z,2.70
2023-04-26T17:16:52.320Z,2.70
2023-04-26T17:19:37.477Z,2.90
2023-04-26T17:22:22.337Z,3.38
2023-04-26T17:25:08.791Z,2.90
2023-04-26T17:27:54.109Z,3.25
2023-04-26T17:30:39.091Z,3.40
2023-04-26T17:33:25.398Z,4.05
2023-04-26T17:36:10.714Z,3.88
2023-04-26T17:38:56.061Z,3.05
2023-04-26T17:41:41.063Z,3.60
2023-04-26T17:44:26.163Z,5.22
2023-04-26T17:47:11.265Z,6.32
2023-04-26T17:49:56.148Z,3.33
2023-04-26T17:52:41.815Z,2.80
2023-04-26T17:55:27.137Z,4.68
2023-04-26T17:58:12.470Z,2.67
2023-04-26T18:00:57.479Z,2.50
2023-04-26T18:03:42.646Z,2.40
2023-04-26T18:06:28.188Z,2.53
2023-04-26T18:09:13.337Z,3.55
2023-04-26T18:11:58.735Z,2.45
2023-04-26T18:14:47.064Z,2.88
2023-04-26T18:17:32.213Z,3.53
2023-04-26T18:20:17.312Z,4.25
2023-04-26T18:23:02.793Z,4.70
2023-04-26T18:25:47.847Z,4.88
2023-04-26T18:28:32.821Z,5.22
2023-04-26T18:31:18.078Z,4.97
2023-04-26T18:34:03.386Z,3.20
2023-04-26T18:36:48.570Z,3.20
2023-04-26T18:39:33.542Z,3.08
2023-04-26T18:42:18.755Z,3.42
2023-04-26T18:45:05.093Z,3.20
2023-04-26T18:47:50.330Z,3.97
2023-04-26T18:50:36.004Z,3.00
2023-04-26T18:53:24.244Z,3.63
2023-04-26T18:56:09.191Z,3.35
2023-04-26T18:58:54.220Z,3.10
2023-04-26T19:01:39.556Z,2.70
2023-04-26T19:04:24.922Z,3.55
2023-04-26T19:07:10.080Z,3.17
2023-04-26T19:10:00.819Z,2.80
2023-04-26T19:12:46.248Z,3.00
2023-04-26T19:15:31.357Z,2.72
2023-04-26T19:18:17.855Z,3.15
2023-04-26T19:21:04.664Z,3.30
2023-04-26T19:23:50.057Z,3.30
2023-04-26T19:26:37.224Z,3.70
2023-04-26T19:29:22.298Z,3.88
2023-04-26T19:32:07.819Z,3.78
2023-04-26T19:34:53.055Z,3.00
2023-04-26T19:37:38.043Z,3.13
2023-04-26T19:40:22.976Z,3.15
2023-04-26T19:43:08.113Z,3.63
2023-04-26T19:45:53.255Z,3.25
2023-04-26T19:48:38.489Z,3.30
2023-04-26T19:51:23.631Z,3.53
2023-04-26T19:54:08.670Z,5.30
2023-04-26T19:56:53.810Z,5.60
2023-04-26T19:59:38.890Z,3.72
2023-04-26T20:02:24.017Z,4.25
2023-04-26T20:05:09.416Z,4.93
2023-04-26T20:07:54.741Z,6.22
2023-04-26T20:10:41.582Z,6.53
2023-04-26T20:13:26.984Z,6.28
2023-04-26T20:16:12.823Z,6.18
2023-04-26T20:18:58.049Z,6.65
2023-04-26T20:21:43.170Z,6.97
2023-04-26T20:24:28.196Z,7.10
2023-04-26T20:27:13.353Z,6.80
2023-04-26T20:29:58.477Z,6.68
2023-04-26T20:32:44.167Z,6.90
2023-04-26T20:35:29.573Z,6.15
2023-04-26T20:38:14.454Z,7.20
2023-04-26T20:41:00.605Z,6.25
2023-04-26T20:43:45.788Z,6.30
2023-04-26T20:46:32.180Z,6.95
2023-04-26T20:49:17.650Z,6.65
2023-04-26T20:52:02.747Z,6.97
2023-04-26T20:54:47.878Z,6.88
2023-04-26T20:57:32.913Z,6.60
2023-04-26T21:00:18.424Z,7.72
2023-04-26T21:03:04.235Z,8.65
2023-04-26T21:05:50.063Z,7.88
2023-04-26T21:08:36.744Z,7.93
2023-04-26T21:11:22.185Z,6.65
2023-04-26T21:14:07.126Z,7.18
2023-04-26T21:16:52.222Z,7.47
2023-04-26T21:19:37.307Z,6.85
2023-04-26T21:22:22.693Z,6.10
2023-04-26T21:25:08.304Z,6.15
2023-04-26T21:27:53.541Z,6.78
2023-04-26T21:30:38.713Z,6.55
2023-04-26T21:33:23.700Z,6.80
2023-04-26T21:36:09.175Z,11.63
2023-04-26T21:38:54.394Z,7.30
2023-04-26T21:41:40.345Z,7.63
2023-04-26T21:44:25.704Z,5.88
2023-04-26T21:47:10.969Z,6.47
2023-04-26T21:49:56.145Z,5.85
2023-04-26T21:52:41.362Z,6.35
2023-04-26T21:55:26.911Z,4.45
2023-04-26T21:58:12.068Z,5.43
2023-04-26T22:01:10.405Z,5.55
2023-04-26T22:03:55.368Z,5.22
2023-04-26T22:06:40.626Z,5.20
2023-04-26T22:09:25.635Z,5.55
2023-04-26T22:12:11.148Z,7.55
2023-04-26T22:14:56.477Z,6.15
2023-04-26T22:17:41.669Z,5.10
2023-04-26T22:20:26.805Z,5.00
2023-04-26T22:23:12.022Z,4.10
2023-04-26T22:25:59.516Z,4.47
2023-04-26T22:28:44.808Z,5.38
2023-04-26T22:31:29.814Z,6.57
2023-04-26T22:34:14.780Z,5.90
2023-04-26T22:37:13.152Z,5.75
2023-04-26T22:40:05.685Z,5.10
2023-04-26T22:42:51.223Z,4.75
2023-04-26T22:45:36.462Z,4.72
2023-04-26T22:48:21.645Z,4.80
2023-04-26T22:51:06.998Z,4.78
2023-04-26T22:53:52.024Z,5.05
2023-04-26T22:56:37.408Z,5.75
2023-04-26T22:59:22.370Z,5.20
2023-04-26T23:02:07.557Z,5.05
2023-04-26T23:04:52.995Z,4.70
2023-04-26T23:07:39.561Z,5.18
2023-04-26T23:10:24.955Z,5.22
2023-04-26T23:13:09.994Z,4.70
2023-04-26T23:15:54.960Z,5.13
2023-04-26T23:18:41.983Z,5.05
2023-04-26T23:21:28.144Z,5.22
2023-04-26T23:24:13.116Z,6.55
2023-04-26T23:26:57.994Z,5.30
2023-04-26T23:29:43.284Z,11.40
2023-04-26T23:32:28.476Z,11.52
2023-04-26T23:35:13.877Z,8.30
2023-04-26T23:37:59.203Z,13.18
2023-04-26T23:40:44.669Z,9.80
2023-04-26T23:43:30.121Z,16.05
2023-04-26T23:46:14.976Z,17.27
2023-04-26T23:49:00.394Z,17.60
2023-04-26T23:51:45.647Z,23.58
2023-04-26T23:54:31.301Z,17.90
2023-04-26T23:57:16.642Z,17.23
